Reklama

Seznam meteostanic a jejich METAR

Vyhledat místa podle abecedy:
A B C D E F G H I J K L M N O P Q R S T U V W X Y Z

Filtrovat:

ID stanice:
a/nebo
Název místa (fulltext):
 
Místo (ID)Naposledy načteno 
Odense (EKOD) 30.05.2020 14:50 UTC Zobrazit METAR
EKOD 301450Z 03010KT 360V070 CAVOK 20/06 Q1026
Odesa (UKOO) 01.02.2018 08:00 UTC Zobrazit METAR
UKOO 010800Z CAVOK 07/04 Q1018 R16/190056 NOSIG
Osijek (LDOS) 31.05.2020 01:00 UTC Zobrazit METAR
LDOS 310100Z 27008KT CAVOK 09/06 Q1015
Oslo (ENGM) 31.05.2020 00:50 UTC Zobrazit METAR
ENGM 310050Z 36004KT CAVOK 09/07 Q1033
Ostend (EBOS) 31.05.2020 00:50 UTC Zobrazit METAR
EBOS 310050Z 08007KT CAVOK 14/08 Q1022 NOSIG
Ostrava (LKMT) 31.05.2020 01:00 UTC Zobrazit METAR
LKMT 310100Z 36003KT 320V040 9999 -RA OVC046 09/07 Q1016 NOSIG
Ottawa (CYOW) 31.05.2020 01:00 UTC Zobrazit METAR
CYOW 310100Z 32015G23KT 15SM VCSH SCT015 OVC021 09/06 A2996 RMK SC3SC5 SH S SLP149
Ouagadougou (DFFD) 31.05.2020 01:00 UTC Zobrazit METAR
DFFD 310100Z 26005KT 230V290 CAVOK 28/20 Q1011 NOSIG
Oulu (EFOU) 31.05.2020 00:50 UTC Zobrazit METAR
EFOU 310050Z AUTO 36003KT CAVOK 09/06 Q1032
Reklama

Lunární kalendář

  • 05.06.Fáze měsíce uplnek
  • 13.06.Fáze měsíce posl_ctvrt
  • 21.06.Fáze měsíce nov
  • 28.06.Fáze měsíce prv_ctvrt



Reklama
Meteodomečky

Počasí na Váš email

Emaily jsou bez reklamy a bez spamu



Odhlásit newsletter

Reklama


Další české internetové stránky (nejen) o počasí najdete v katalogu TOPlist - weby o počasí nebo vyhledejte na internetu, co jste tu na 🌞 Slunečnu ⛅ zatím nenašli:

Reklama